createdAt,value
2023-03-29T00:00:34.022Z,165.69
2023-03-29T00:01:36.029Z,162.61
2023-03-29T00:02:34.057Z,163.76
2023-03-29T00:03:34.136Z,158.04
2023-03-29T00:04:34.183Z,162.26
2023-03-29T00:05:34.056Z,169.79
2023-03-29T00:06:34.054Z,170.99
2023-03-29T00:07:34.044Z,163.95
2023-03-29T00:08:34.095Z,168.17
2023-03-29T00:09:34.033Z,167.25
2023-03-29T00:10:34.104Z,163.81
2023-03-29T00:11:34.062Z,165.34
2023-03-29T00:12:34.055Z,169.77
2023-03-29T00:13:34.052Z,164.92
2023-03-29T00:14:34.038Z,158.82
2023-03-29T00:15:34.037Z,161.39
2023-03-29T00:16:34.083Z,155.68
2023-03-29T00:17:34.101Z,163.32
2023-03-29T00:18:34.022Z,164.26
2023-03-29T00:19:34.037Z,168.50
2023-03-29T00:20:34.030Z,157.23
2023-03-29T00:21:34.055Z,160.11
2023-03-29T00:22:34.066Z,155.98
2023-03-29T00:23:34.038Z,155.44
2023-03-29T00:24:34.050Z,152.59
2023-03-29T00:25:34.062Z,150.93
2023-03-29T00:26:34.071Z,154.07
2023-03-29T00:27:34.051Z,151.53
2023-03-29T00:28:34.034Z,149.08
2023-03-29T00:29:34.054Z,143.77
2023-03-29T00:30:34.026Z,152.11
2023-03-29T00:31:34.079Z,156.27
2023-03-29T00:32:34.149Z,152.02
2023-03-29T00:33:34.032Z,153.45
2023-03-29T00:34:34.032Z,152.99
2023-03-29T00:35:34.074Z,144.98
2023-03-29T00:36:34.022Z,155.07
2023-03-29T00:37:34.111Z,145.62
2023-03-29T00:38:34.013Z,143.85
2023-03-29T00:39:34.014Z,144.42
2023-03-29T00:40:34.018Z,150.91
2023-03-29T00:41:34.011Z,164.55
2023-03-29T00:42:33.993Z,165.39
2023-03-29T00:43:33.998Z,162.28
2023-03-29T00:44:34.009Z,156.50
2023-03-29T00:45:33.995Z,161.43
2023-03-29T00:46:34.044Z,162.95
2023-03-29T00:47:34.095Z,157.60
2023-03-29T00:48:33.997Z,159.90
2023-03-29T00:49:33.989Z,157.08
2023-03-29T00:50:34.137Z,156.55
2023-03-29T00:51:33.972Z,168.07
2023-03-29T00:52:33.970Z,162.55
2023-03-29T00:53:33.951Z,161.38
2023-03-29T00:54:33.951Z,158.07
2023-03-29T00:55:33.950Z,162.10
2023-03-29T00:56:33.968Z,158.25
2023-03-29T00:57:33.991Z,161.06
2023-03-29T00:58:33.941Z,160.80
2023-03-29T00:59:33.945Z,167.27
2023-03-29T01:00:33.948Z,167.83
2023-03-29T01:01:34.094Z,163.18
2023-03-29T01:02:33.965Z,167.22
2023-03-29T01:03:33.953Z,162.93
2023-03-29T01:04:33.964Z,164.93
2023-03-29T01:05:33.965Z,169.84
2023-03-29T01:06:34.008Z,180.83
2023-03-29T01:07:33.908Z,180.81
2023-03-29T01:08:33.904Z,180.05
2023-03-29T01:09:33.903Z,174.32
2023-03-29T01:10:33.911Z,173.74
2023-03-29T01:11:33.897Z,172.41
2023-03-29T01:12:33.890Z,164.23
2023-03-29T01:13:33.891Z,164.39
2023-03-29T01:14:33.899Z,168.70
2023-03-29T01:15:33.875Z,171.36
2023-03-29T01:16:33.915Z,161.26
2023-03-29T01:17:33.924Z,160.37
2023-03-29T01:18:33.869Z,154.61
2023-03-29T01:19:33.889Z,158.53
2023-03-29T01:20:33.876Z,159.47
2023-03-29T01:21:33.877Z,160.64
2023-03-29T01:22:33.891Z,163.64
2023-03-29T01:23:33.842Z,165.15
2023-03-29T01:24:33.835Z,171.18
2023-03-29T01:25:33.839Z,169.11
2023-03-29T01:26:33.849Z,161.21
2023-03-29T01:27:33.838Z,153.29
2023-03-29T01:28:33.858Z,158.14
2023-03-29T01:29:33.829Z,160.48
2023-03-29T01:30:33.816Z,156.19
2023-03-29T01:31:33.875Z,150.54
2023-03-29T01:32:33.853Z,152.73
2023-03-29T01:33:33.809Z,150.53
2023-03-29T01:34:33.808Z,152.10
2023-03-29T01:35:33.833Z,145.91
2023-03-29T01:36:33.814Z,145.02
2023-03-29T01:37:33.815Z,142.04
2023-03-29T01:38:33.801Z,143.61
2023-03-29T01:39:33.784Z,142.70
2023-03-29T01:40:33.788Z,145.77
2023-03-29T01:41:33.793Z,141.52
2023-03-29T01:42:33.780Z,144.95
2023-03-29T01:43:33.781Z,148.15
2023-03-29T01:44:33.775Z,142.07
2023-03-29T01:45:33.787Z,149.31
2023-03-29T01:46:33.879Z,144.71
2023-03-29T01:47:33.828Z,140.14
2023-03-29T01:48:33.780Z,146.99
2023-03-29T01:49:33.778Z,147.19
2023-03-29T01:50:33.777Z,146.24
2023-03-29T01:51:33.766Z,146.89
2023-03-29T01:52:33.783Z,147.42
2023-03-29T01:53:33.781Z,147.56
2023-03-29T01:54:33.788Z,148.82
2023-03-29T01:55:33.778Z,137.37
2023-03-29T01:56:33.772Z,140.87
2023-03-29T01:57:33.783Z,147.39
2023-03-29T01:58:33.811Z,144.41
2023-03-29T01:59:33.779Z,143.23
2023-03-29T02:00:33.784Z,144.10
2023-03-29T02:01:33.805Z,147.93
2023-03-29T02:02:33.838Z,155.31
2023-03-29T02:03:33.899Z,148.79
2023-03-29T02:04:33.745Z,147.27
2023-03-29T02:05:33.779Z,147.46
2023-03-29T02:06:33.764Z,147.70
2023-03-29T02:07:33.736Z,150.64
2023-03-29T02:08:33.748Z,144.21
2023-03-29T02:09:33.745Z,144.21
2023-03-29T02:10:33.742Z,144.15
2023-03-29T02:11:33.737Z,140.66
2023-03-29T02:12:33.748Z,149.47
2023-03-29T02:13:33.740Z,144.77
2023-03-29T02:14:33.744Z,138.17
2023-03-29T02:15:33.817Z,143.19
2023-03-29T02:16:33.723Z,149.90
2023-03-29T02:17:33.741Z,148.62
2023-03-29T02:18:33.709Z,142.81
2023-03-29T02:19:33.711Z,153.45
2023-03-29T02:20:33.712Z,148.81
2023-03-29T02:21:33.724Z,154.90
2023-03-29T02:22:33.725Z,151.23
2023-03-29T02:23:33.718Z,146.28
2023-03-29T02:24:33.717Z,153.02
2023-03-29T02:25:33.721Z,151.25
2023-03-29T02:26:33.715Z,155.01
2023-03-29T02:27:33.696Z,148.78
2023-03-29T02:28:33.738Z,156.02
2023-03-29T02:29:33.712Z,157.77
2023-03-29T02:30:33.703Z,151.51
2023-03-29T02:31:33.737Z,152.09
2023-03-29T02:32:33.719Z,157.07
2023-03-29T02:33:33.694Z,156.60
2023-03-29T02:34:33.694Z,156.28
2023-03-29T02:35:33.682Z,154.59
2023-03-29T02:36:33.678Z,154.21
2023-03-29T02:37:33.726Z,154.19
2023-03-29T02:38:33.669Z,156.80
2023-03-29T02:39:33.671Z,155.05
2023-03-29T02:40:33.677Z,153.59
2023-03-29T02:41:33.656Z,149.89
2023-03-29T02:42:33.660Z,155.24
2023-03-29T02:43:33.667Z,155.11
2023-03-29T02:44:33.641Z,150.77
2023-03-29T02:45:33.649Z,160.97
2023-03-29T02:46:33.653Z,165.69
2023-03-29T02:47:33.668Z,161.74
2023-03-29T02:48:33.652Z,167.38
2023-03-29T02:49:33.658Z,164.61
2023-03-29T02:50:33.676Z,167.13
2023-03-29T02:51:33.639Z,163.34
2023-03-29T02:52:33.659Z,162.20
2023-03-29T02:53:33.646Z,164.12
2023-03-29T02:54:33.638Z,164.11
2023-03-29T02:55:33.640Z,167.09
2023-03-29T02:56:33.624Z,170.64
2023-03-29T02:57:33.630Z,179.62
2023-03-29T02:58:33.643Z,187.09
2023-03-29T02:59:33.637Z,188.41
2023-03-29T03:00:33.640Z,186.36
2023-03-29T03:01:33.665Z,181.62
2023-03-29T03:02:33.673Z,180.98
2023-03-29T03:03:33.726Z,183.90
2023-03-29T03:04:33.591Z,185.30
2023-03-29T03:05:33.623Z,189.08
2023-03-29T03:06:33.624Z,186.56
2023-03-29T03:07:33.622Z,183.04
2023-03-29T03:08:33.606Z,191.43
2023-03-29T03:09:33.596Z,185.50
2023-03-29T03:10:33.590Z,186.00
2023-03-29T03:11:33.615Z,184.38
2023-03-29T03:12:33.591Z,181.43
2023-03-29T03:13:33.600Z,188.31
2023-03-29T03:14:33.586Z,186.36
2023-03-29T03:15:33.584Z,191.92
2023-03-29T03:16:33.652Z,189.95
2023-03-29T03:17:33.641Z,188.57
2023-03-29T03:18:33.586Z,194.77
2023-03-29T03:19:33.566Z,190.27
2023-03-29T03:20:33.623Z,187.76
2023-03-29T03:21:33.603Z,184.56
2023-03-29T03:22:33.560Z,186.42
2023-03-29T03:23:33.551Z,190.60
2023-03-29T03:24:33.546Z,186.24
2023-03-29T03:25:33.553Z,188.15
2023-03-29T03:26:33.581Z,190.65
2023-03-29T03:27:33.542Z,184.36
2023-03-29T03:28:33.562Z,188.57
2023-03-29T03:29:33.563Z,191.74
2023-03-29T03:30:33.543Z,192.13
2023-03-29T03:31:33.620Z,191.38
2023-03-29T03:32:33.581Z,192.64
2023-03-29T03:33:33.561Z,190.55
2023-03-29T03:34:33.537Z,187.46
2023-03-29T03:35:33.566Z,189.31
2023-03-29T03:36:33.522Z,195.08
2023-03-29T03:37:33.543Z,192.10
2023-03-29T03:38:33.536Z,190.21
2023-03-29T03:39:33.563Z,198.52
2023-03-29T03:40:33.563Z,190.00
2023-03-29T03:41:33.531Z,186.14
2023-03-29T03:42:33.534Z,183.25
2023-03-29T03:43:33.510Z,187.01
2023-03-29T03:44:33.505Z,186.53
2023-03-29T03:45:33.573Z,187.57
2023-03-29T03:46:33.505Z,181.24
2023-03-29T03:47:33.524Z,182.81
2023-03-29T03:48:33.497Z,190.52
2023-03-29T03:49:33.494Z,195.84
2023-03-29T03:50:33.480Z,195.74
2023-03-29T03:51:33.501Z,191.65
2023-03-29T03:52:33.496Z,188.54
2023-03-29T03:53:33.485Z,189.75
2023-03-29T03:54:33.473Z,190.01
2023-03-29T03:55:33.463Z,190.44
2023-03-29T03:56:33.490Z,188.13
2023-03-29T03:57:33.470Z,195.65
2023-03-29T03:58:33.468Z,189.63
2023-03-29T03:59:33.470Z,190.27
2023-03-29T04:00:33.484Z,188.83
2023-03-29T04:01:33.467Z,186.82
2023-03-29T04:02:33.628Z,184.31
2023-03-29T04:03:33.524Z,179.48
2023-03-29T04:04:33.509Z,176.70
2023-03-29T04:05:33.485Z,179.44
2023-03-29T04:06:33.474Z,178.39
2023-03-29T04:07:33.472Z,181.45
2023-03-29T04:08:33.468Z,187.88
2023-03-29T04:09:33.516Z,186.56
2023-03-29T04:10:33.458Z,182.71
2023-03-29T04:11:33.477Z,188.31
2023-03-29T04:12:33.457Z,187.07
2023-03-29T04:13:33.465Z,186.14
2023-03-29T04:14:33.455Z,191.51
2023-03-29T04:15:33.483Z,188.61
2023-03-29T04:16:33.458Z,193.01
2023-03-29T04:17:33.610Z,183.18
2023-03-29T04:18:33.580Z,189.46
2023-03-29T04:19:33.470Z,188.11
2023-03-29T04:20:33.468Z,193.91
2023-03-29T04:21:33.460Z,199.09
2023-03-29T04:22:33.446Z,203.24
2023-03-29T04:23:33.446Z,200.30
2023-03-29T04:24:33.454Z,195.24
2023-03-29T04:25:33.462Z,191.68
2023-03-29T04:26:33.435Z,192.31
2023-03-29T04:27:33.446Z,187.10
2023-03-29T04:28:33.453Z,189.46
2023-03-29T04:29:33.533Z,193.40
2023-03-29T04:30:33.423Z,194.61
2023-03-29T04:31:33.463Z,196.77
2023-03-29T04:32:33.490Z,191.40
2023-03-29T04:33:33.477Z,192.16
2023-03-29T04:34:33.450Z,188.76
2023-03-29T04:35:33.606Z,187.74
2023-03-29T04:36:33.440Z,184.50
2023-03-29T04:37:33.465Z,187.81
2023-03-29T04:38:33.476Z,180.76
2023-03-29T04:39:33.455Z,189.78
2023-03-29T04:40:33.470Z,188.91
2023-03-29T04:41:33.448Z,190.72
2023-03-29T04:42:33.436Z,193.09
2023-03-29T04:43:33.457Z,186.27
2023-03-29T04:44:33.511Z,183.03
2023-03-29T04:45:33.454Z,192.47
2023-03-29T04:46:33.536Z,189.20
2023-03-29T04:47:33.486Z,190.68
2023-03-29T04:48:33.456Z,198.57
2023-03-29T04:49:33.473Z,196.50
2023-03-29T04:50:33.466Z,197.53
2023-03-29T04:51:33.503Z,191.61
2023-03-29T04:52:33.544Z,190.09
2023-03-29T04:53:33.528Z,194.66
2023-03-29T04:54:33.547Z,195.24
2023-03-29T04:55:33.530Z,206.82
2023-03-29T04:56:33.541Z,216.31
2023-03-29T04:57:33.579Z,213.25
2023-03-29T04:58:33.578Z,207.90
2023-03-29T04:59:33.585Z,209.24
2023-03-29T05:00:33.614Z,201.77
2023-03-29T05:01:33.632Z,202.80
2023-03-29T05:02:33.660Z,205.02
2023-03-29T05:03:33.646Z,201.92
2023-03-29T05:04:33.656Z,202.36
2023-03-29T05:05:33.656Z,199.04
2023-03-29T05:06:33.666Z,200.46
2023-03-29T05:07:33.639Z,205.68
2023-03-29T05:08:33.675Z,207.23
2023-03-29T05:09:35.523Z,206.83
2023-03-29T05:10:33.672Z,208.20
2023-03-29T05:11:33.703Z,206.20
2023-03-29T05:12:33.697Z,204.92
2023-03-29T05:13:33.705Z,207.25
2023-03-29T05:14:33.719Z,203.48
2023-03-29T05:15:33.704Z,203.50
2023-03-29T05:16:33.764Z,207.38
2023-03-29T05:17:33.746Z,216.31
2023-03-29T05:18:33.743Z,218.53
2023-03-29T05:19:33.714Z,219.82
2023-03-29T05:20:33.741Z,219.90
2023-03-29T05:21:33.731Z,217.49
2023-03-29T05:22:33.739Z,215.21
2023-03-29T05:23:33.743Z,215.78
2023-03-29T05:24:33.726Z,217.43
2023-03-29T05:25:33.992Z,218.16
2023-03-29T05:26:33.734Z,223.02
2023-03-29T05:27:33.744Z,224.82
2023-03-29T05:28:33.818Z,228.32
2023-03-29T05:29:33.759Z,217.06
2023-03-29T05:30:33.794Z,215.91
2023-03-29T05:31:33.793Z,230.58
2023-03-29T05:32:33.810Z,228.66
2023-03-29T05:33:33.834Z,237.69
2023-03-29T05:34:33.808Z,226.36
2023-03-29T05:35:33.898Z,243.12
2023-03-29T05:36:33.846Z,250.00
2023-03-29T05:37:33.855Z,249.38
2023-03-29T05:38:33.946Z,250.00
2023-03-29T05:39:36.406Z,249.43
2023-03-29T05:40:33.926Z,250.17
2023-03-29T05:41:33.931Z,246.23
2023-03-29T05:42:33.930Z,249.09
2023-03-29T05:43:33.907Z,248.88
2023-03-29T05:44:33.903Z,250.00
2023-03-29T05:45:33.951Z,249.54
2023-03-29T05:46:33.901Z,250.00
2023-03-29T05:47:33.885Z,248.71
2023-03-29T05:48:33.862Z,249.73
2023-03-29T05:49:33.849Z,249.12
2023-03-29T05:50:33.872Z,249.51
2023-03-29T05:51:33.859Z,245.58
2023-03-29T05:52:33.832Z,245.08
2023-03-29T05:53:33.838Z,228.03
2023-03-29T05:54:33.820Z,217.33
2023-03-29T05:55:33.846Z,210.93
2023-03-29T05:56:33.827Z,203.45
2023-03-29T05:57:33.811Z,192.74
2023-03-29T05:58:33.800Z,189.79
2023-03-29T05:59:33.821Z,183.84
2023-03-29T06:00:33.813Z,179.95
2023-03-29T06:01:33.786Z,190.13
2023-03-29T06:02:33.886Z,206.71
2023-03-29T06:03:33.975Z,224.73
2023-03-29T06:04:34.007Z,233.20
2023-03-29T06:05:33.792Z,235.91
2023-03-29T06:06:33.745Z,224.30
2023-03-29T06:07:33.745Z,226.73
2023-03-29T06:08:33.797Z,233.01
2023-03-29T06:09:33.717Z,240.20
2023-03-29T06:10:33.787Z,244.33
2023-03-29T06:11:33.726Z,246.59
2023-03-29T06:12:33.715Z,249.53
2023-03-29T06:13:33.694Z,250.00
2023-03-29T06:14:33.697Z,249.44
2023-03-29T06:15:33.702Z,249.50
2023-03-29T06:16:33.756Z,260.09
2023-03-29T06:17:33.798Z,247.24
2023-03-29T06:18:33.693Z,243.46
2023-03-29T06:19:33.676Z,239.34
2023-03-29T06:20:33.676Z,237.09
2023-03-29T06:21:33.732Z,238.48
2023-03-29T06:22:33.771Z,238.77
2023-03-29T06:23:33.795Z,238.11
2023-03-29T06:24:33.857Z,238.51
2023-03-29T06:25:33.891Z,239.33
2023-03-29T06:26:33.952Z,238.57
2023-03-29T06:27:33.969Z,240.38
2023-03-29T06:28:34.006Z,241.02
2023-03-29T06:29:34.026Z,242.04
2023-03-29T06:30:34.073Z,241.41
2023-03-29T06:31:34.629Z,234.36
2023-03-29T06:32:34.142Z,236.16
2023-03-29T06:33:34.232Z,231.27
2023-03-29T06:34:35.518Z,236.91
2023-03-29T06:35:34.303Z,241.28
2023-03-29T06:36:34.314Z,247.34
2023-03-29T06:37:34.337Z,250.00
2023-03-29T06:38:34.359Z,248.11
2023-03-29T06:39:34.390Z,246.88
2023-03-29T06:40:34.397Z,329.27
2023-03-29T06:41:34.409Z,335.31
2023-03-29T06:42:34.452Z,285.73
2023-03-29T06:43:34.464Z,268.10
2023-03-29T06:44:34.486Z,252.22
2023-03-29T06:45:34.512Z,235.47
2023-03-29T06:46:35.351Z,224.44
2023-03-29T06:47:35.051Z,221.64
2023-03-29T06:48:34.605Z,254.23
2023-03-29T06:49:34.630Z,244.75
2023-03-29T06:50:34.642Z,235.50
2023-03-29T06:51:35.431Z,227.91
2023-03-29T06:52:35.023Z,227.34
2023-03-29T06:53:34.662Z,229.09
2023-03-29T06:54:34.660Z,223.99
2023-03-29T06:55:34.681Z,218.63
2023-03-29T06:56:34.680Z,217.23
2023-03-29T06:57:34.704Z,218.48
2023-03-29T06:58:34.721Z,219.69
2023-03-29T06:59:35.021Z,219.85
2023-03-29T07:00:34.726Z,219.50
2023-03-29T07:01:34.920Z,218.37
2023-03-29T07:02:35.175Z,218.15
2023-03-29T07:03:34.787Z,217.47
2023-03-29T07:04:34.818Z,216.59
2023-03-29T07:05:34.781Z,214.83
2023-03-29T07:06:34.808Z,213.02
2023-03-29T07:07:35.036Z,207.17
2023-03-29T07:08:34.842Z,211.18
2023-03-29T07:09:34.840Z,211.58
2023-03-29T07:10:34.861Z,210.78
2023-03-29T07:11:34.893Z,209.07
2023-03-29T07:12:34.883Z,207.37
2023-03-29T07:13:34.965Z,206.96
2023-03-29T07:14:34.928Z,205.89
2023-03-29T07:15:34.933Z,204.51
2023-03-29T07:16:35.004Z,203.78
2023-03-29T07:17:35.102Z,202.73
2023-03-29T07:18:34.972Z,202.30
2023-03-29T07:19:34.995Z,202.73
2023-03-29T07:20:34.991Z,201.75
2023-03-29T07:21:36.692Z,201.22
2023-03-29T07:22:34.977Z,201.86
2023-03-29T07:23:34.967Z,200.50
2023-03-29T07:24:34.982Z,200.68
2023-03-29T07:25:34.964Z,198.13
2023-03-29T07:26:34.947Z,201.24
2023-03-29T07:27:35.049Z,198.86
2023-03-29T07:28:35.039Z,199.15
2023-03-29T07:29:34.926Z,198.25
2023-03-29T07:30:34.930Z,197.89
2023-03-29T07:31:34.913Z,196.77
2023-03-29T07:32:35.009Z,205.89
2023-03-29T07:33:35.157Z,209.34
2023-03-29T07:34:34.909Z,206.79
2023-03-29T07:35:35.102Z,208.72
2023-03-29T07:36:34.883Z,208.49
2023-03-29T07:37:35.055Z,206.96
2023-03-29T07:38:34.869Z,204.19
2023-03-29T07:39:34.888Z,204.40
2023-03-29T07:40:34.863Z,202.64
2023-03-29T07:41:34.863Z,201.68
2023-03-29T07:42:34.846Z,201.61
2023-03-29T07:43:34.831Z,200.23
2023-03-29T07:44:34.820Z,200.69
2023-03-29T07:45:34.835Z,200.59
2023-03-29T07:46:34.837Z,199.69
2023-03-29T07:47:34.901Z,200.30
2023-03-29T07:48:34.791Z,200.12
2023-03-29T07:49:35.047Z,198.90
2023-03-29T07:50:34.813Z,199.35
2023-03-29T07:51:34.773Z,200.92
2023-03-29T07:52:34.766Z,200.87
2023-03-29T07:53:34.753Z,201.04
2023-03-29T07:54:34.795Z,200.14
2023-03-29T07:55:34.769Z,201.62
2023-03-29T07:56:34.751Z,201.16
2023-03-29T07:57:34.755Z,204.10
2023-03-29T07:58:34.763Z,204.07
2023-03-29T07:59:35.049Z,207.51
2023-03-29T08:00:34.812Z,207.53
2023-03-29T08:01:34.724Z,206.47
2023-03-29T08:02:34.706Z,207.97
2023-03-29T08:03:34.761Z,207.39
2023-03-29T08:04:34.781Z,205.19
2023-03-29T08:05:41.296Z,198.76
2023-03-29T08:06:35.660Z,197.26
2023-03-29T08:07:34.668Z,195.68
2023-03-29T08:08:34.674Z,193.54
2023-03-29T08:09:34.646Z,196.59
2023-03-29T08:10:34.661Z,193.62
2023-03-29T08:11:34.649Z,192.22
2023-03-29T08:12:34.652Z,189.49
2023-03-29T08:13:34.624Z,180.25
2023-03-29T08:14:34.614Z,178.21
2023-03-29T08:15:35.072Z,176.42
2023-03-29T08:16:34.665Z,176.27
2023-03-29T08:17:34.649Z,180.38
2023-03-29T08:18:35.097Z,184.09
2023-03-29T08:19:34.594Z,174.44
2023-03-29T08:20:35.052Z,167.57
2023-03-29T08:21:34.572Z,176.33
2023-03-29T08:22:34.584Z,181.06
2023-03-29T08:23:34.566Z,185.26
2023-03-29T08:24:34.590Z,190.20
2023-03-29T08:25:34.552Z,185.41
2023-03-29T08:26:34.544Z,186.74
2023-03-29T08:27:34.566Z,190.84
2023-03-29T08:28:34.589Z,192.03
2023-03-29T08:29:34.649Z,193.62
2023-03-29T08:30:34.623Z,194.10
2023-03-29T08:31:34.819Z,194.91
2023-03-29T08:32:34.662Z,190.68
2023-03-29T08:33:34.655Z,191.88
2023-03-29T08:34:34.661Z,193.31
2023-03-29T08:35:34.791Z,194.39
2023-03-29T08:36:34.688Z,189.84
2023-03-29T08:37:34.672Z,184.22
2023-03-29T08:38:34.709Z,184.61
2023-03-29T08:39:34.705Z,187.60
2023-03-29T08:40:34.751Z,192.38
2023-03-29T08:41:34.718Z,192.35
2023-03-29T08:42:34.734Z,190.44
2023-03-29T08:43:35.061Z,188.64
2023-03-29T08:44:34.697Z,188.65
2023-03-29T08:45:34.717Z,188.17
2023-03-29T08:46:35.661Z,190.00
2023-03-29T08:47:34.723Z,189.66
2023-03-29T08:48:34.715Z,189.81
2023-03-29T08:49:34.731Z,189.88
2023-03-29T08:50:34.729Z,190.03
2023-03-29T08:51:34.736Z,189.38
2023-03-29T08:52:34.752Z,190.10
2023-03-29T08:53:34.811Z,190.83
2023-03-29T08:54:34.796Z,190.94
2023-03-29T08:55:34.748Z,190.87
2023-03-29T08:56:34.775Z,190.07
2023-03-29T08:57:34.785Z,191.68
2023-03-29T08:58:34.865Z,199.99
2023-03-29T08:59:34.892Z,195.52
2023-03-29T09:00:34.841Z,193.10
2023-03-29T09:01:35.018Z,193.06
2023-03-29T09:02:35.056Z,191.28
2023-03-29T09:03:35.030Z,191.79
2023-03-29T09:04:35.023Z,190.94
2023-03-29T09:05:35.064Z,191.01
2023-03-29T09:06:35.139Z,190.38
2023-03-29T09:07:35.153Z,189.02
2023-03-29T09:08:35.165Z,188.07
2023-03-29T09:09:35.262Z,187.95
2023-03-29T09:10:35.257Z,188.15
2023-03-29T09:11:35.328Z,189.11
2023-03-29T09:12:36.605Z,188.72
2023-03-29T09:13:35.483Z,187.43
2023-03-29T09:14:35.528Z,189.07
2023-03-29T09:15:35.562Z,188.97
2023-03-29T09:16:35.643Z,194.76
2023-03-29T09:17:36.113Z,205.32
2023-03-29T09:18:35.747Z,196.51
2023-03-29T09:19:35.798Z,191.58
2023-03-29T09:20:35.848Z,186.51
2023-03-29T09:21:35.924Z,187.82
2023-03-29T09:22:35.966Z,186.82
2023-03-29T09:23:36.017Z,188.17
2023-03-29T09:24:36.079Z,188.96
2023-03-29T09:25:41.075Z,189.54
2023-03-29T09:26:37.154Z,180.48
2023-03-29T09:27:36.636Z,174.70
2023-03-29T09:28:36.105Z,175.42
2023-03-29T09:29:36.131Z,161.95
2023-03-29T09:30:36.091Z,177.67
2023-03-29T09:31:36.146Z,178.92
2023-03-29T09:32:36.190Z,148.31
2023-03-29T09:33:36.081Z,125.87
2023-03-29T09:34:36.066Z,140.59
2023-03-29T09:35:36.142Z,141.75
2023-03-29T09:36:36.043Z,145.23
2023-03-29T09:37:36.062Z,149.78
2023-03-29T09:38:36.039Z,149.49
2023-03-29T09:39:36.024Z,152.33
2023-03-29T09:40:36.035Z,159.46
2023-03-29T09:41:36.020Z,167.72
2023-03-29T09:42:36.004Z,170.11
2023-03-29T09:43:35.999Z,170.72
2023-03-29T09:44:36.076Z,167.58
2023-03-29T09:45:35.996Z,166.94
2023-03-29T09:46:35.997Z,173.49
2023-03-29T09:47:36.055Z,176.51
2023-03-29T09:48:36.108Z,170.22
2023-03-29T09:49:36.129Z,173.29
2023-03-29T09:50:36.180Z,176.32
2023-03-29T09:51:36.230Z,177.00
2023-03-29T09:52:36.289Z,177.53
2023-03-29T09:53:36.343Z,173.24
2023-03-29T09:54:36.400Z,177.07
2023-03-29T09:55:36.451Z,177.00
2023-03-29T09:56:36.518Z,175.54
2023-03-29T09:57:36.591Z,174.90
2023-03-29T09:58:36.629Z,177.65
2023-03-29T09:59:36.679Z,175.94
2023-03-29T10:00:36.800Z,175.59
2023-03-29T10:01:36.791Z,175.57
2023-03-29T10:02:36.845Z,175.32
2023-03-29T10:03:37.137Z,174.04
2023-03-29T10:04:37.181Z,175.38
2023-03-29T10:05:36.971Z,176.52
2023-03-29T10:06:37.010Z,177.21
2023-03-29T10:07:37.055Z,175.88
2023-03-29T10:08:37.105Z,174.00
2023-03-29T10:09:37.609Z,176.64
2023-03-29T10:10:37.186Z,164.51
2023-03-29T10:11:37.245Z,173.05
2023-03-29T10:12:37.251Z,169.62
2023-03-29T10:13:37.309Z,168.15
2023-03-29T10:14:37.362Z,157.84
2023-03-29T10:15:37.412Z,170.82
2023-03-29T10:16:37.478Z,160.04
2023-03-29T10:17:37.553Z,161.78
2023-03-29T10:18:37.553Z,151.24
2023-03-29T10:19:38.123Z,159.93
2023-03-29T10:20:37.684Z,152.87
2023-03-29T10:21:37.731Z,173.99
2023-03-29T10:22:37.880Z,174.54
2023-03-29T10:23:37.820Z,177.99
2023-03-29T10:24:38.129Z,173.99
2023-03-29T10:25:39.215Z,175.97
2023-03-29T10:26:37.869Z,173.81
2023-03-29T10:27:37.852Z,167.00
2023-03-29T10:28:37.791Z,167.15
2023-03-29T10:29:37.825Z,173.94
2023-03-29T10:30:37.773Z,180.00
2023-03-29T10:31:37.805Z,178.06
2023-03-29T10:32:37.949Z,177.59
2023-03-29T10:33:37.788Z,177.83
2023-03-29T10:34:37.744Z,178.21
2023-03-29T10:35:37.820Z,176.19
2023-03-29T10:36:37.730Z,176.66
2023-03-29T10:37:37.745Z,177.98
2023-03-29T10:38:37.744Z,177.89
2023-03-29T10:39:37.744Z,175.36
2023-03-29T10:40:37.713Z,176.14
2023-03-29T10:41:37.701Z,176.88
2023-03-29T10:42:37.682Z,175.50
2023-03-29T10:43:37.705Z,172.29
2023-03-29T10:44:37.687Z,171.60
2023-03-29T10:45:37.665Z,169.93
2023-03-29T10:46:37.735Z,171.01
2023-03-29T10:47:37.664Z,172.76
2023-03-29T10:48:37.642Z,170.34
2023-03-29T10:49:37.657Z,173.03
2023-03-29T10:50:37.617Z,172.76
2023-03-29T10:51:37.617Z,169.27
2023-03-29T10:52:37.617Z,160.30
2023-03-29T10:53:37.638Z,144.01
2023-03-29T10:54:37.610Z,157.08
2023-03-29T10:55:37.628Z,135.67
2023-03-29T10:56:37.620Z,153.32
2023-03-29T10:57:37.843Z,149.10
2023-03-29T10:58:37.593Z,134.11
2023-03-29T10:59:37.680Z,149.95
2023-03-29T11:00:37.642Z,142.49
2023-03-29T11:01:37.813Z,157.07
2023-03-29T11:02:37.836Z,156.33
2023-03-29T11:03:37.994Z,165.95
2023-03-29T11:04:37.855Z,163.99
2023-03-29T11:05:37.921Z,161.54
2023-03-29T11:06:38.018Z,163.73
2023-03-29T11:07:38.071Z,163.54
2023-03-29T11:08:38.082Z,162.76
2023-03-29T11:09:38.165Z,163.81
2023-03-29T11:10:38.224Z,162.04
2023-03-29T11:11:38.295Z,160.70
2023-03-29T11:12:38.326Z,161.46
2023-03-29T11:13:38.372Z,161.76
2023-03-29T11:14:38.431Z,161.55
2023-03-29T11:15:38.747Z,160.99
2023-03-29T11:16:38.517Z,161.95
2023-03-29T11:17:38.632Z,160.72
2023-03-29T11:18:38.624Z,164.68
2023-03-29T11:19:38.648Z,163.69
2023-03-29T11:20:38.722Z,163.26
2023-03-29T11:21:38.770Z,162.00
2023-03-29T11:22:38.816Z,160.15
2023-03-29T11:23:38.864Z,160.64
2023-03-29T11:24:38.917Z,158.81
2023-03-29T11:25:38.940Z,157.92
2023-03-29T11:26:38.990Z,158.83
2023-03-29T11:27:39.019Z,158.20
2023-03-29T11:28:39.075Z,156.98
2023-03-29T11:29:39.119Z,157.44
2023-03-29T11:30:39.168Z,155.64
2023-03-29T11:31:39.320Z,156.50
2023-03-29T11:32:39.244Z,156.08
2023-03-29T11:33:39.292Z,155.53
2023-03-29T11:34:39.327Z,154.89
2023-03-29T11:35:39.428Z,151.75
2023-03-29T11:36:39.438Z,152.67
2023-03-29T11:37:39.474Z,150.57
2023-03-29T11:38:39.504Z,151.10
2023-03-29T11:39:39.547Z,148.80
2023-03-29T11:40:39.586Z,148.80
2023-03-29T11:41:39.648Z,149.52
2023-03-29T11:42:39.657Z,146.68
2023-03-29T11:43:39.720Z,145.41
2023-03-29T11:44:39.725Z,146.20
2023-03-29T11:45:39.798Z,144.18
2023-03-29T11:46:39.853Z,140.87
2023-03-29T11:47:39.952Z,138.85
2023-03-29T11:48:39.883Z,139.47
2023-03-29T11:49:39.937Z,141.98
2023-03-29T11:50:39.937Z,142.66
2023-03-29T11:51:40.011Z,142.56
2023-03-29T11:52:40.098Z,138.95
2023-03-29T11:53:40.046Z,140.59
2023-03-29T11:54:40.631Z,138.91
2023-03-29T11:55:40.136Z,139.47
2023-03-29T11:56:40.225Z,139.29
2023-03-29T11:57:40.671Z,135.89
2023-03-29T11:58:40.215Z,138.74
2023-03-29T11:59:40.258Z,139.85
2023-03-29T12:00:40.287Z,136.82
2023-03-29T12:01:40.341Z,137.04
2023-03-29T12:02:40.882Z,137.18
2023-03-29T12:03:40.546Z,136.89
2023-03-29T12:04:40.428Z,136.26
2023-03-29T12:05:40.469Z,136.15
2023-03-29T12:06:40.488Z,133.63
2023-03-29T12:07:40.576Z,134.83
2023-03-29T12:08:40.583Z,135.57
2023-03-29T12:09:40.656Z,134.16
2023-03-29T12:10:40.670Z,133.62
2023-03-29T12:11:40.705Z,134.73
2023-03-29T12:12:41.172Z,131.37
2023-03-29T12:13:40.754Z,131.58
2023-03-29T12:14:40.813Z,132.60
2023-03-29T12:15:40.858Z,134.75
2023-03-29T12:16:41.011Z,128.13
2023-03-29T12:17:40.971Z,127.39
2023-03-29T12:18:41.008Z,129.76
2023-03-29T12:19:43.554Z,129.45
2023-03-29T12:20:40.999Z,128.01
2023-03-29T12:21:41.032Z,129.06
2023-03-29T12:22:40.997Z,130.95
2023-03-29T12:23:41.008Z,131.73
2023-03-29T12:24:40.971Z,128.61
2023-03-29T12:25:40.947Z,127.80
2023-03-29T12:26:40.990Z,130.65
2023-03-29T12:27:40.945Z,128.18
2023-03-29T12:28:40.980Z,128.77